Time;durP1;ratioP1;P1;durP2;ratioP2;P2;SDS_P1;SDS_P2;PMS_P1;PMS_P2;Temp;Humidity;BMP_temperature;BMP_pressure;BME280_temperature;BME280_humidity;BME280_pressure;Samples;Min_cycle;Max_cycle;Signal;HPM_P1;HPM_P2
2023/03/22 00:02:29;;;;;;;;;6.25;6.25;;;;;-147.17;100.00;-15917.19;5037389;28;51394;-48
2023/03/22 00:04:54;;;;;;;;;8.00;7.25;;;;;-147.17;100.00;-15917.19;5024073;28;53011;-49
2023/03/22 00:07:20;;;;;;;;;6.25;5.75;;;;;-147.17;100.00;-15917.19;5042905;28;52144;-49
2023/03/22 00:09:45;;;;;;;;;7.00;7.00;;;;;-147.17;100.00;-15917.19;5047331;28;51156;-47
2023/03/22 00:12:10;;;;;;;;;6.25;6.25;;;;;-147.17;100.00;-15917.19;5041280;28;51467;-47
2023/03/22 00:14:36;;;;;;;;;6.00;6.00;;;;;-147.17;100.00;-15917.19;5020965;28;51835;-46
2023/03/22 00:17:01;;;;;;;;;7.00;6.25;;;;;-147.17;100.00;-15917.19;5024303;28;52342;-47
2023/03/22 00:19:28;;;;;;;;;7.00;6.50;;;;;-147.17;100.00;-15917.19;5042450;28;51580;-49
2023/03/22 00:21:54;;;;;;;;;7.00;6.25;;;;;-147.17;100.00;-15917.19;5035800;28;51409;-47
2023/03/22 00:24:20;;;;;;;;;6.00;4.00;;;;;-147.17;100.00;-15917.19;5037253;28;51889;-47
2023/03/22 00:26:46;;;;;;;;;6.50;6.50;;;;;-147.17;100.00;-15917.19;5041940;28;51142;-47
2023/03/22 00:29:11;;;;;;;;;7.50;7.50;;;;;-147.17;100.00;-15917.19;5036925;28;52315;-48
2023/03/22 00:31:37;;;;;;;;;5.50;4.50;;;;;-147.17;100.00;-15917.19;5038060;28;52263;-51
2023/03/22 00:34:02;;;;;;;;;7.75;6.75;;;;;-147.17;100.00;-15917.19;5036141;28;51912;-48
2023/03/22 00:36:36;;;;;;;;;11.25;11.00;;;;;-147.17;100.00;-15917.19;5042764;28;51324;-47
2023/03/22 00:39:02;;;;;;;;;15.75;15.50;;;;;-147.17;100.00;-15917.19;5022953;28;52239;-49
2023/03/22 00:41:27;;;;;;;;;18.75;17.75;;;;;-147.17;100.00;-15917.19;5044200;28;51217;-47
2023/03/22 00:43:53;;;;;;;;;20.00;16.00;;;;;-147.17;100.00;-15917.19;5041577;28;51160;-51
2023/03/22 00:46:20;;;;;;;;;13.25;12.75;;;;;-147.17;100.00;-15917.19;5021679;28;51156;-48
2023/03/22 00:48:45;;;;;;;;;16.25;15.50;;;;;-147.17;100.00;-15917.19;5049902;28;51244;-52
2023/03/22 00:51:12;;;;;;;;;8.75;8.25;;;;;-147.17;100.00;-15917.19;5048354;28;51156;-49
2023/03/22 00:53:38;;;;;;;;;7.25;6.00;;;;;-147.17;100.00;-15917.19;5047148;28;51200;-52
2023/03/22 00:56:04;;;;;;;;;5.00;5.00;;;;;-147.17;100.00;-15917.19;5050279;28;51220;-49
2023/03/22 00:58:30;;;;;;;;;4.25;4.25;;;;;-147.17;100.00;-15917.19;5043104;28;51275;-50
2023/03/22 01:00:56;;;;;;;;;3.25;3.25;;;;;-147.17;100.00;-15917.19;5046125;28;51389;-48
2023/03/22 01:03:23;;;;;;;;;3.00;2.50;;;;;-147.17;100.00;-15917.19;5050009;28;51145;-47
2023/03/22 01:05:50;;;;;;;;;2.67;2.67;;;;;-147.17;100.00;-15917.19;5052430;28;51076;-48
2023/03/22 01:08:15;;;;;;;;;2.67;2.67;;;;;-147.17;100.00;-15917.19;5052528;28;51269;-49
2023/03/22 01:10:42;;;;;;;;;4.00;3.00;;;;;-147.17;100.00;-15917.19;5032628;28;51204;-50
2023/03/22 01:13:09;;;;;;;;;4.00;3.00;;;;;-147.17;100.00;-15917.19;5026243;28;53415;-48
2023/03/22 01:15:35;;;;;;;;;4.00;4.00;;;;;-147.17;100.00;-15917.19;5050482;28;51192;-50
2023/03/22 01:18:01;;;;;;;;;2.00;2.00;;;;;-147.17;100.00;-15917.19;5049555;28;52613;-49
2023/03/22 01:20:27;;;;;;;;;2.67;2.00;;;;;-147.17;100.00;-15917.19;5051777;28;51164;-50
2023/03/22 01:22:52;;;;;;;;;3.00;3.00;;;;;-147.17;100.00;-15917.19;5032189;28;52697;-48
2023/03/22 01:25:18;;;;;;;;;2.00;2.00;;;;;-147.17;100.00;-15917.19;5044626;28;50991;-48
2023/03/22 01:27:43;;;;;;;;;2.00;1.00;;;;;-147.17;100.00;-15917.19;5051261;28;51325;-47
2023/03/22 01:30:10;;;;;;;;;2.00;2.00;;;;;-147.17;100.00;-15917.19;5047863;28;51713;-50
2023/03/22 01:32:36;;;;;;;;;2.00;2.00;;;;;-147.17;100.00;-15917.19;5031891;28;52837;-48
2023/03/22 01:35:03;;;;;;;;;1.00;1.00;;;;;-147.17;100.00;-15917.19;5050246;28;51178;-46
2023/03/22 01:37:28;;;;;;;;;3.00;2.00;;;;;-147.17;100.00;-15917.19;5048545;28;51089;-47
2023/03/22 01:39:54;;;;;;;;;2.00;1.67;;;;;-147.17;100.00;-15917.19;5046493;28;52253;-50
2023/03/22 01:42:21;;;;;;;;;1.00;1.00;;;;;-147.17;100.00;-15917.19;5033009;28;52618;-49
2023/03/22 01:45:15;;;;;;;;;1.67;1.00;;;;;-147.17;100.00;-15917.19;5030751;28;51176;-48
2023/03/22 01:47:56;;;;;;;;;1.00;1.00;;;;;-147.17;100.00;-15917.19;5047620;28;51098;-48
2023/03/22 01:50:25;;;;;;;;;1.33;1.33;;;;;-147.17;100.00;-15917.19;5047558;28;51225;-48
2023/03/22 01:52:52;;;;;;;;;1.33;1.33;;;;;-147.17;100.00;-15917.19;5049573;28;52095;-49
2023/03/22 01:55:21;;;;;;;;;2.00;2.00;;;;;-147.17;100.00;-15917.19;5038178;28;51018;-50
2023/03/22 01:57:47;;;;;;;;;1.00;1.00;;;;;-147.17;100.00;-15917.19;5042211;28;51293;-48
2023/03/22 02:00:14;;;;;;;;;2.50;2.50;;;;;-147.17;100.00;-15917.19;5045298;28;51227;-50
2023/03/22 02:02:42;;;;;;;;;1.00;1.00;;;;;-147.17;100.00;-15917.19;5042545;28;52242;-48
2023/03/22 02:05:08;;;;;;;;;1.75;1.00;;;;;-147.17;100.00;-15917.19;5031523;28;52518;-51
2023/03/22 02:07:35;;;;;;;;;3.00;2.00;;;;;-147.17;100.00;-15917.19;5029917;28;51817;-51
2023/03/22 02:10:00;;;;;;;;;2.00;1.33;;;;;-147.17;100.00;-15917.19;5052255;28;51042;-48
2023/03/22 02:12:33;;;;;;;;;1.33;1.00;;;;;-147.17;100.00;-15917.19;5057662;28;51733;-48
2023/03/22 02:15:19;;;;;;;;;2.00;2.00;;;;;-147.17;100.00;-15917.19;5049340;28;51375;-48
2023/03/22 02:17:58;;;;;;;;;3.00;2.00;;;;;-147.17;100.00;-15917.19;5048727;28;51322;-50
2023/03/22 02:20:45;;;;;;;;;2.00;2.00;;;;;-147.17;100.00;-15917.19;5049993;28;51101;-48
2023/03/22 02:23:11;;;;;;;;;3.00;1.50;;;;;-147.17;100.00;-15917.19;5049784;28;52000;-50
2023/03/22 02:25:59;;;;;;;;;2.00;1.00;;;;;-147.17;100.00;-15917.19;5044733;28;51100;-49
2023/03/22 02:28:51;;;;;;;;;2.75;2.00;;;;;-147.17;100.00;-15917.19;5049453;28;51204;-48
2023/03/22 02:31:38;;;;;;;;;4.00;4.00;;;;;-147.17;100.00;-15917.19;5049407;28;51387;-47
2023/03/22 02:34:23;;;;;;;;;6.00;5.00;;;;;-147.17;100.00;-15917.19;5052117;28;52152;-49
2023/03/22 02:37:03;;;;;;;;;3.25;3.00;;;;;-147.17;100.00;-15917.19;5040596;28;51321;-47
2023/03/22 02:39:46;;;;;;;;;4.00;3.75;;;;;-147.17;100.00;-15917.19;5046497;28;51232;-48
2023/03/22 02:42:39;;;;;;;;;1.25;1.00;;;;;-147.17;100.00;-15917.19;5049689;28;51070;-48
2023/03/22 02:45:33;;;;;;;;;2.00;1.75;;;;;-147.17;100.00;-15917.19;5048567;28;51101;-47
2023/03/22 02:48:02;;;;;;;;;3.00;3.00;;;;;-147.17;100.00;-15917.19;5036980;28;51160;-51
2023/03/22 02:50:42;;;;;;;;;3.00;3.00;;;;;-147.17;100.00;-15917.19;5050156;28;52852;-51
2023/03/22 02:53:23;;;;;;;;;3.75;3.25;;;;;-147.17;100.00;-15917.19;5042277;28;51035;-51
2023/03/22 02:56:00;;;;;;;;;2.00;1.00;;;;;-147.17;100.00;-15917.19;5043685;28;51935;-49
2023/03/22 02:58:28;;;;;;;;;2.25;2.00;;;;;-147.17;100.00;-15917.19;5053106;28;51176;-50
2023/03/22 03:00:59;;;;;;;;;3.00;2.00;;;;;-147.17;100.00;-15917.19;5032411;28;51278;-49
2023/03/22 03:03:29;;;;;;;;;2.50;2.50;;;;;-147.17;100.00;-15917.19;5054402;28;51246;-50
2023/03/22 03:06:07;;;;;;;;;5.00;2.00;;;;;-147.17;100.00;-15917.19;5054155;28;51751;-50
2023/03/22 03:08:35;;;;;;;;;2.00;1.75;;;;;-147.17;100.00;-15917.19;5053419;28;51111;-48
2023/03/22 03:11:00;;;;;;;;;3.50;3.50;;;;;-147.17;100.00;-15917.19;5055550;28;52339;-51
2023/03/22 03:13:25;;;;;;;;;3.00;2.00;;;;;-147.17;100.00;-15917.19;5054005;28;51171;-48
2023/03/22 03:15:57;;;;;;;;;1.67;1.00;;;;;-147.17;100.00;-15917.19;5050240;28;52385;-47
2023/03/22 03:18:54;;;;;;;;;1.75;1.25;;;;;-147.17;100.00;-15917.19;5046362;28;51171;-47
2023/03/22 03:21:31;;;;;;;;;2.00;2.00;;;;;-147.17;100.00;-15917.19;5040337;28;51417;-48
2023/03/22 03:24:38;;;;;;;;;2.00;1.00;;;;;-147.17;100.00;-15917.19;5051362;28;51366;-51
2023/03/22 03:27:35;;;;;;;;;2.00;1.00;;;;;-147.17;100.00;-15917.19;4978137;28;51358;-50
2023/03/22 03:30:11;;;;;;;;;1.25;0.75;;;;;-147.17;100.00;-15917.19;4962606;28;51172;-48
2023/03/22 03:32:45;;;;;;;;;0.00;0.00;;;;;-147.17;100.00;-15917.19;4991526;28;51667;-46
2023/03/22 03:35:25;;;;;;;;;3.00;2.00;;;;;-147.17;100.00;-15917.19;5042564;28;51955;-48
2023/03/22 03:37:56;;;;;;;;;1.75;1.00;;;;;-147.17;100.00;-15917.19;5042173;28;51966;-48
2023/03/22 03:40:39;;;;;;;;;3.75;3.00;;;;;-147.17;100.00;-15917.19;5043651;28;51205;-49
2023/03/22 03:43:05;;;;;;;;;2.00;2.00;;;;;-147.17;100.00;-15917.19;5043608;28;52160;-48
2023/03/22 03:45:34;;;;;;;;;1.67;1.67;;;;;-147.17;100.00;-15917.19;5041360;28;51273;-51
2023/03/22 03:48:05;;;;;;;;;3.25;2.25;;;;;-147.17;100.00;-15917.19;5023486;28;51861;-47
2023/03/22 03:50:31;;;;;;;;;2.00;1.75;;;;;-147.17;100.00;-15917.19;5042620;28;51954;-48
2023/03/22 03:52:57;;;;;;;;;3.00;3.00;;;;;-147.17;100.00;-15917.19;5039858;28;51358;-47
2023/03/22 03:55:23;;;;;;;;;2.00;2.00;;;;;-147.17;100.00;-15917.19;5039638;28;51257;-51
2023/03/22 03:57:49;;;;;;;;;1.33;1.33;;;;;-147.17;100.00;-15917.19;5020860;28;53245;-48
2023/03/22 04:00:15;;;;;;;;;1.50;1.50;;;;;-147.17;100.00;-15917.19;5040851;28;51394;-48
2023/03/22 04:02:41;;;;;;;;;1.00;1.00;;;;;-147.17;100.00;-15917.19;5021407;28;52126;-49
2023/03/22 04:05:07;;;;;;;;;3.00;2.00;;;;;-147.17;100.00;-15917.19;5039801;28;51326;-48
2023/03/22 04:07:33;;;;;;;;;2.00;1.00;;;;;-147.17;100.00;-15917.19;5041418;28;52188;-49
2023/03/22 04:09:59;;;;;;;;;1.33;1.00;;;;;-147.17;100.00;-15917.19;5043466;28;51135;-49
2023/03/22 04:12:24;;;;;;;;;3.00;2.33;;;;;-147.17;100.00;-15917.19;5052499;28;51307;-49
2023/03/22 04:14:50;;;;;;;;;2.33;1.00;;;;;-147.17;100.00;-15917.19;5051810;28;51049;-48
2023/03/22 04:17:15;;;;;;;;;2.67;2.00;;;;;-147.17;100.00;-15917.19;5053665;28;51238;-47
2023/03/22 04:19:41;;;;;;;;;3.00;0.00;;;;;-147.17;100.00;-15917.19;5053573;28;51104;-48
2023/03/22 04:22:06;;;;;;;;;1.00;1.00;;;;;-147.17;100.00;-15917.19;5048873;28;52608;-48
2023/03/22 04:24:31;;;;;;;;;1.67;1.67;;;;;-147.17;100.00;-15917.19;5053676;28;51154;-49
2023/03/22 04:26:57;;;;;;;;;1.00;1.00;;;;;-147.17;100.00;-15917.19;5054239;28;51253;-47
2023/03/22 04:29:23;;;;;;;;;1.00;1.00;;;;;-147.17;100.00;-15917.19;5052640;28;51144;-50
2023/03/22 04:31:48;;;;;;;;;1.67;1.00;;;;;-147.17;100.00;-15917.19;5033784;28;51358;-49
2023/03/22 04:34:14;;;;;;;;;1.00;1.00;;;;;-147.17;100.00;-15917.19;5044728;28;50920;-49
2023/03/22 04:36:39;;;;;;;;;1.33;1.00;;;;;-147.17;100.00;-15917.19;5052020;28;51440;-49
2023/03/22 04:39:10;;;;;;;;;1.00;1.00;;;;;-147.17;100.00;-15917.19;5035089;28;51233;-48
2023/03/22 04:41:36;;;;;;;;;1.00;0.00;;;;;-147.17;100.00;-15917.19;5046877;28;51203;-48
2023/03/22 04:44:02;;;;;;;;;1.00;0.67;;;;;-147.17;100.00;-15917.19;5053566;28;51320;-48
2023/03/22 04:46:33;;;;;;;;;2.00;1.00;;;;;-147.17;100.00;-15917.19;5051264;28;51991;-49
2023/03/22 04:48:59;;;;;;;;;1.00;1.00;;;;;-147.17;100.00;-15917.19;5034452;28;51019;-48
2023/03/22 04:51:25;;;;;;;;;2.00;2.00;;;;;-147.17;100.00;-15917.19;5046918;28;51209;-49
2023/03/22 04:53:51;;;;;;;;;0.67;0.00;;;;;-147.17;100.00;-15917.19;5053339;28;51171;-49
2023/03/22 04:56:17;;;;;;;;;2.00;2.00;;;;;-147.17;100.00;-15917.19;5044554;28;51119;-49
2023/03/22 04:58:44;;;;;;;;;1.00;0.00;;;;;-147.17;100.00;-15917.19;5049940;28;51156;-48
2023/03/22 05:01:11;;;;;;;;;2.00;0.33;;;;;-147.17;100.00;-15917.19;5041166;28;51200;-48
2023/03/22 05:03:36;;;;;;;;;3.00;2.00;;;;;-147.17;100.00;-15917.19;5034480;28;51372;-51
2023/03/22 05:06:05;;;;;;;;;0.33;0.00;;;;;-147.17;100.00;-15917.19;5052538;28;52228;-50
2023/03/22 05:08:31;;;;;;;;;1.00;0.00;;;;;-147.17;100.00;-15917.19;5051936;28;51034;-49
2023/03/22 05:10:59;;;;;;;;;1.00;1.00;;;;;-147.17;100.00;-15917.19;5048862;28;51618;-49
2023/03/22 05:13:26;;;;;;;;;1.00;1.00;;;;;-147.17;100.00;-15917.19;5045691;28;51167;-53
2023/03/22 05:15:52;;;;;;;;;1.33;0.00;;;;;-147.17;100.00;-15917.19;5032011;28;51126;-49
2023/03/22 05:18:25;;;;;;;;;1.00;1.00;;;;;-147.17;100.00;-15917.19;5050562;28;51421;-51
2023/03/22 05:20:52;;;;;;;;;1.00;1.00;;;;;-147.17;100.00;-15917.19;5050857;28;50970;-51
2023/03/22 05:23:19;;;;;;;;;1.67;1.00;;;;;-147.17;100.00;-15917.19;5053046;28;50959;-49
2023/03/22 05:25:46;;;;;;;;;1.00;1.00;;;;;-147.17;100.00;-15917.19;5051549;28;52095;-48
2023/03/22 05:28:13;;;;;;;;;0.33;0.33;;;;;-147.17;100.00;-15917.19;5049125;28;51200;-47
2023/03/22 05:30:40;;;;;;;;;0.67;0.33;;;;;-147.17;100.00;-15917.19;5044914;28;51103;-48
2023/03/22 05:33:06;;;;;;;;;1.67;0.33;;;;;-147.17;100.00;-15917.19;5050710;28;51307;-49
2023/03/22 05:35:33;;;;;;;;;1.67;1.00;;;;;-147.17;100.00;-15917.19;5050810;28;51024;-51
2023/03/22 05:37:59;;;;;;;;;1.00;1.00;;;;;-147.17;100.00;-15917.19;5051727;28;50894;-50
2023/03/22 05:40:25;;;;;;;;;0.33;0.33;;;;;-147.17;100.00;-15917.19;5045426;28;51304;-51
2023/03/22 05:42:54;;;;;;;;;3.50;2.00;;;;;-147.17;100.00;-15917.19;5047946;28;51190;-47
2023/03/22 05:45:21;;;;;;;;;1.67;1.00;;;;;-147.17;100.00;-15917.19;5051528;28;51804;-49
2023/03/22 05:47:47;;;;;;;;;1.00;1.00;;;;;-147.17;100.00;-15917.19;5027452;28;51078;-49
2023/03/22 05:50:16;;;;;;;;;1.33;1.33;;;;;-147.17;100.00;-15917.19;5051981;28;52489;-48
2023/03/22 05:52:43;;;;;;;;;3.67;3.00;;;;;-147.17;100.00;-15917.19;5050517;28;51082;-49
2023/03/22 05:55:11;;;;;;;;;3.25;3.00;;;;;-147.17;100.00;-15917.19;5047976;28;52767;-50
2023/03/22 05:57:37;;;;;;;;;2.67;2.33;;;;;-147.17;100.00;-15917.19;5046633;28;51339;-47
2023/03/22 06:00:17;;;;;;;;;2.75;2.75;;;;;-147.17;100.00;-15917.19;5039552;28;51082;-49
2023/03/22 06:02:45;;;;;;;;;3.00;2.00;;;;;-147.17;100.00;-15917.19;5049838;28;51272;-49
2023/03/22 06:05:12;;;;;;;;;4.00;2.00;;;;;-147.17;100.00;-15917.19;5045788;28;51231;-48
2023/03/22 06:07:38;;;;;;;;;2.00;1.33;;;;;-147.17;100.00;-15917.19;5052179;28;51197;-47
2023/03/22 06:10:06;;;;;;;;;3.00;3.00;;;;;-147.17;100.00;-15917.19;5052102;28;51248;-53
2023/03/22 06:12:32;;;;;;;;;4.00;4.00;;;;;-147.17;100.00;-15917.19;5030906;28;51016;-47
2023/03/22 06:14:58;;;;;;;;;5.00;4.00;;;;;-147.17;100.00;-15917.19;5050420;28;51172;-47
2023/03/22 06:17:23;;;;;;;;;9.00;4.00;;;;;-147.17;100.00;-15917.19;5051989;28;51094;-49
2023/03/22 06:19:49;;;;;;;;;6.33;3.00;;;;;-147.17;100.00;-15917.19;5050821;28;51271;-50
2023/03/22 06:22:15;;;;;;;;;4.25;3.50;;;;;-147.17;100.00;-15917.19;5059609;28;51328;-47
2023/03/22 06:24:41;;;;;;;;;3.75;3.75;;;;;-147.17;100.00;-15917.19;5055243;28;52700;-49
2023/03/22 06:27:08;;;;;;;;;3.00;3.00;;;;;-147.17;100.00;-15917.19;5047202;28;51154;-48
2023/03/22 06:29:34;;;;;;;;;4.00;4.00;;;;;-147.17;100.00;-15917.19;5054836;28;50970;-49
2023/03/22 06:32:00;;;;;;;;;5.25;5.00;;;;;-147.17;100.00;-15917.19;5045048;28;51859;-48
2023/03/22 06:34:26;;;;;;;;;6.25;5.25;;;;;-147.17;100.00;-15917.19;5052167;28;51189;-48
2023/03/22 06:36:52;;;;;;;;;4.00;4.00;;;;;-147.17;100.00;-15917.19;5052535;28;53708;-48
2023/03/22 06:39:18;;;;;;;;;4.00;3.33;;;;;-147.17;100.00;-15917.19;5046432;28;51288;-49
2023/03/22 06:41:44;;;;;;;;;4.00;4.00;;;;;-147.17;100.00;-15917.19;5035930;28;51282;-48
2023/03/22 06:44:09;;;;;;;;;4.50;4.50;;;;;-147.17;100.00;-15917.19;5054497;28;51961;-47
2023/03/22 06:46:34;;;;;;;;;5.67;5.00;;;;;-147.17;100.00;-15917.19;5054200;28;51052;-47
2023/03/22 06:49:00;;;;;;;;;7.75;5.25;;;;;-147.17;100.00;-15917.19;5049847;28;51250;-47
2023/03/22 06:51:25;;;;;;;;;1.33;1.33;;;;;-147.17;100.00;-15917.19;5050571;28;51297;-48
2023/03/22 06:53:50;;;;;;;;;3.50;3.50;;;;;-147.17;100.00;-15917.19;5053302;28;51965;-49
2023/03/22 06:56:16;;;;;;;;;4.00;3.00;;;;;-147.17;100.00;-15917.19;5047359;28;51119;-50
2023/03/22 06:58:41;;;;;;;;;6.25;5.25;;;;;-147.17;100.00;-15917.19;5032708;28;53043;-52
2023/03/22 07:01:07;;;;;;;;;4.25;3.50;;;;;-147.17;100.00;-15917.19;5038995;28;51221;-48
2023/03/22 07:03:32;;;;;;;;;6.25;6.00;;;;;-147.17;100.00;-15917.19;5041615;28;51718;-51
2023/03/22 07:06:06;;;;;;;;;3.25;2.00;;;;;-147.17;100.00;-15917.19;5019261;28;51178;-49
2023/03/22 07:08:32;;;;;;;;;6.00;4.00;;;;;-147.17;100.00;-15917.19;5041609;28;52244;-51
2023/03/22 07:10:58;;;;;;;;;5.00;3.75;;;;;-147.17;100.00;-15917.19;5043146;28;51215;-49
2023/03/22 07:13:24;;;;;;;;;6.00;6.00;;;;;-147.17;100.00;-15917.19;5051262;28;51170;-52
2023/03/22 07:15:54;;;;;;;;;3.00;3.00;;;;;-147.17;100.00;-15917.19;5035953;28;51145;-52
2023/03/22 07:18:20;;;;;;;;;4.00;4.00;;;;;-147.17;100.00;-15917.19;5052289;28;51110;-52
2023/03/22 07:20:45;;;;;;;;;9.50;7.25;;;;;-147.17;100.00;-15917.19;5045190;28;51293;-52
2023/03/22 07:23:10;;;;;;;;;7.00;7.00;;;;;-147.17;100.00;-15917.19;5053219;28;51186;-52
2023/03/22 07:25:36;;;;;;;;;4.00;3.67;;;;;-147.17;100.00;-15917.19;5053300;28;50973;-52
2023/03/22 07:28:01;;;;;;;;;4.33;4.33;;;;;-147.17;100.00;-15917.19;5044500;28;51166;-48
2023/03/22 07:30:26;;;;;;;;;5.50;5.25;;;;;-147.17;100.00;-15917.19;5045169;28;51216;-49
2023/03/22 07:32:54;;;;;;;;;5.67;4.33;;;;;-147.17;100.00;-15917.19;5051926;28;52126;-50
2023/03/22 07:35:19;;;;;;;;;4.25;4.00;;;;;-147.17;100.00;-15917.19;5047421;28;51338;-51
2023/03/22 07:37:47;;;;;;;;;6.25;4.00;;;;;-147.17;100.00;-15917.19;5047550;28;51674;-50
2023/03/22 07:40:13;;;;;;;;;7.75;5.50;;;;;-147.17;100.00;-15917.19;5043903;28;51800;-52
2023/03/22 07:42:38;;;;;;;;;5.75;5.00;;;;;-147.17;100.00;-15917.19;5044877;28;51174;-48
2023/03/22 07:45:05;;;;;;;;;5.00;4.67;;;;;-147.17;100.00;-15917.19;5048986;28;51521;-47
2023/03/22 07:47:30;;;;;;;;;6.00;3.00;;;;;-147.17;100.00;-15917.19;5032221;28;51112;-50
2023/03/22 07:49:56;;;;;;;;;5.00;5.00;;;;;-147.17;100.00;-15917.19;5052598;28;51042;-48
2023/03/22 07:52:22;;;;;;;;;8.00;5.75;;;;;-147.17;100.00;-15917.19;5035045;28;53717;-48
2023/03/22 07:54:47;;;;;;;;;5.00;3.00;;;;;-147.17;100.00;-15917.19;5053276;28;51080;-47
2023/03/22 07:57:12;;;;;;;;;7.50;6.25;;;;;-147.17;100.00;-15917.19;5052376;28;51636;-47
2023/03/22 07:59:38;;;;;;;;;6.00;6.00;;;;;-147.17;100.00;-15917.19;5042330;28;50949;-48
2023/03/22 08:02:03;;;;;;;;;7.75;6.00;;;;;-147.17;100.00;-15917.19;5028811;28;53616;-50
2023/03/22 08:04:29;;;;;;;;;5.00;4.00;;;;;-147.17;100.00;-15917.19;5045544;28;51053;-49
2023/03/22 08:06:57;;;;;;;;;8.00;6.00;;;;;-147.17;100.00;-15917.19;5051830;28;51224;-48
2023/03/22 08:09:24;;;;;;;;;3.67;3.33;;;;;-147.17;100.00;-15917.19;5052644;28;51144;-49
2023/03/22 08:11:50;;;;;;;;;4.67;4.33;;;;;-147.17;100.00;-15917.19;5058045;28;51995;-48
2023/03/22 08:14:15;;;;;;;;;5.33;5.33;;;;;-147.17;100.00;-15917.19;5050809;28;50988;-49
2023/03/22 08:16:42;;;;;;;;;4.67;4.33;;;;;-147.17;100.00;-15917.19;5052803;28;51192;-49
2023/03/22 08:19:08;;;;;;;;;3.00;3.00;;;;;-147.17;100.00;-15917.19;5048940;28;50952;-49
2023/03/22 08:21:34;;;;;;;;;3.33;3.00;;;;;-147.17;100.00;-15917.19;5052764;28;52198;-48
2023/03/22 08:23:59;;;;;;;;;6.25;6.00;;;;;-147.17;100.00;-15917.19;5052971;28;51185;-49
2023/03/22 08:26:26;;;;;;;;;5.00;4.00;;;;;-147.17;100.00;-15917.19;5049275;28;51247;-52
2023/03/22 08:28:52;;;;;;;;;5.00;4.33;;;;;-147.17;100.00;-15917.19;5035365;28;51490;-47
2023/03/22 08:31:17;;;;;;;;;2.67;2.67;;;;;-147.17;100.00;-15917.19;5047463;28;52012;-49
2023/03/22 08:33:43;;;;;;;;;4.00;4.00;;;;;-147.17;100.00;-15917.19;5052068;28;51112;-49
2023/03/22 08:36:13;;;;;;;;;5.00;3.00;;;;;-147.17;100.00;-15917.19;5045845;28;51189;-49
2023/03/22 08:38:38;;;;;;;;;6.00;4.33;;;;;-147.17;100.00;-15917.19;5034934;28;51409;-52
2023/03/22 08:41:04;;;;;;;;;4.67;3.00;;;;;-147.17;100.00;-15917.19;5051255;28;51781;-49
2023/03/22 08:43:29;;;;;;;;;4.33;4.00;;;;;-147.17;100.00;-15917.19;5051381;28;51146;-51
2023/03/22 08:45:54;;;;;;;;;6.25;4.00;;;;;-147.17;100.00;-15917.19;5052260;28;51069;-52
2023/03/22 08:48:20;;;;;;;;;4.33;4.33;;;;;-147.17;100.00;-15917.19;5035178;28;50934;-52
2023/03/22 08:50:45;;;;;;;;;4.33;4.00;;;;;-147.17;100.00;-15917.19;5052551;28;51925;-54
2023/03/22 08:53:12;;;;;;;;;3.67;3.33;;;;;-147.17;100.00;-15917.19;5053154;28;50960;-49
2023/03/22 08:55:38;;;;;;;;;3.67;3.67;;;;;-147.17;100.00;-15917.19;5048198;28;51168;-49
2023/03/22 08:58:04;;;;;;;;;6.00;6.00;;;;;-147.17;100.00;-15917.19;5049847;28;51281;-48
2023/03/22 09:00:29;;;;;;;;;4.67;3.33;;;;;-147.17;100.00;-15917.19;5031376;28;53203;-50
2023/03/22 09:02:55;;;;;;;;;7.00;6.00;;;;;-147.17;100.00;-15917.19;5034498;28;51158;-50
2023/03/22 09:05:24;;;;;;;;;4.00;4.00;;;;;-147.17;100.00;-15917.19;5052716;28;51039;-47
2023/03/22 09:07:52;;;;;;;;;3.67;3.67;;;;;-147.17;100.00;-15917.19;5053246;28;51278;-54
2023/03/22 09:10:17;;;;;;;;;4.00;4.00;;;;;-147.17;100.00;-15917.19;5051930;28;51073;-48
2023/03/22 09:12:43;;;;;;;;;4.33;3.33;;;;;-147.17;100.00;-15917.19;5050608;28;51101;-51
2023/03/22 09:15:09;;;;;;;;;5.67;4.00;;;;;-147.17;100.00;-15917.19;5052551;28;51353;-49
2023/03/22 09:17:35;;;;;;;;;4.33;4.00;;;;;-147.17;100.00;-15917.19;5018094;28;51042;-49
2023/03/22 09:20:01;;;;;;;;;5.33;4.33;;;;;-147.17;100.00;-15917.19;5051991;28;52286;-52
2023/03/22 09:22:26;;;;;;;;;4.00;3.00;;;;;-147.17;100.00;-15917.19;5052139;28;50825;-48
2023/03/22 09:24:52;;;;;;;;;4.67;4.33;;;;;-147.17;100.00;-15917.19;5052528;28;51021;-50
2023/03/22 09:27:17;;;;;;;;;38.25;33.50;;;;;-147.17;100.00;-15917.19;5036378;28;51356;-56
2023/03/22 09:29:42;;;;;;;;;7.33;5.67;;;;;-147.17;100.00;-15917.19;5046087;28;54670;-50
2023/03/22 09:32:08;;;;;;;;;1.67;1.67;;;;;-147.17;100.00;-15917.19;5045105;28;51024;-51
2023/03/22 09:34:33;;;;;;;;;8.33;6.67;;;;;-147.17;100.00;-15917.19;5051841;28;52569;-47
2023/03/22 09:37:01;;;;;;;;;7.75;5.50;;;;;-147.17;100.00;-15917.19;5052343;28;51048;-50
2023/03/22 09:39:27;;;;;;;;;5.00;5.00;;;;;-147.17;100.00;-15917.19;5050449;28;53374;-49
2023/03/22 09:42:01;;;;;;;;;5.33;5.33;;;;;-147.17;100.00;-15917.19;5033842;28;51079;-52
2023/03/22 09:44:33;;;;;;;;;6.67;5.33;;;;;-147.17;100.00;-15917.19;5034180;28;51172;-50
2023/03/22 09:47:00;;;;;;;;;7.75;6.75;;;;;-147.17;100.00;-15917.19;5046015;28;51175;-48
2023/03/22 09:49:38;;;;;;;;;6.00;5.00;;;;;-147.17;100.00;-15917.19;5051582;28;51992;-48
2023/03/22 09:52:12;;;;;;;;;5.67;5.67;;;;;-147.17;100.00;-15917.19;5050985;28;51090;-51
2023/03/22 09:54:40;;;;;;;;;8.67;8.33;;;;;-147.17;100.00;-15917.19;5052000;28;51189;-50
2023/03/22 09:57:23;;;;;;;;;10.67;8.33;;;;;-147.17;100.00;-15917.19;5054833;28;51340;-49
2023/03/22 10:00:17;;;;;;;;;8.00;7.50;;;;;-147.17;100.00;-15917.19;5047494;28;52476;-51
2023/03/22 10:03:04;;;;;;;;;6.33;6.33;;;;;-147.17;100.00;-15917.19;5051773;28;51152;-52
2023/03/22 10:05:51;;;;;;;;;7.67;7.00;;;;;-147.17;100.00;-15917.19;5052189;28;51086;-51
2023/03/22 10:08:34;;;;;;;;;5.67;5.00;;;;;-147.17;100.00;-15917.19;5054732;28;51321;-49
2023/03/22 10:11:00;;;;;;;;;6.00;5.00;;;;;-147.17;100.00;-15917.19;5046796;28;51063;-52
2023/03/22 10:13:40;;;;;;;;;6.25;5.25;;;;;-147.17;100.00;-15917.19;5050722;28;50963;-51
2023/03/22 10:16:10;;;;;;;;;6.00;6.00;;;;;-147.17;100.00;-15917.19;5055442;28;51107;-49
2023/03/22 10:18:47;;;;;;;;;6.67;6.00;;;;;-147.17;100.00;-15917.19;5055299;28;50887;-51
2023/03/22 10:21:16;;;;;;;;;5.33;5.00;;;;;-147.17;100.00;-15917.19;5041585;28;52274;-47
2023/03/22 10:23:55;;;;;;;;;7.00;6.33;;;;;-147.17;100.00;-15917.19;5055141;28;51207;-49
2023/03/22 10:26:28;;;;;;;;;6.67;5.33;;;;;-147.17;100.00;-15917.19;5049584;28;51082;-53
2023/03/22 10:29:32;;;;;;;;;5.00;5.00;;;;;-147.17;100.00;-15917.19;5049258;28;51394;-48
2023/03/22 10:32:12;;;;;;;;;8.00;7.00;;;;;-147.17;100.00;-15917.19;5036083;28;53038;-50
2023/03/22 10:34:39;;;;;;;;;7.00;6.00;;;;;-147.17;100.00;-15917.19;5051947;28;51176;-49
2023/03/22 10:37:08;;;;;;;;;7.25;7.25;;;;;-147.17;100.00;-15917.19;5054750;28;50973;-50
2023/03/22 10:39:38;;;;;;;;;8.00;6.75;;;;;-147.17;100.00;-15917.19;5054839;28;51415;-53
2023/03/22 10:42:10;;;;;;;;;7.50;7.25;;;;;-147.17;100.00;-15917.19;5054620;28;52093;-50
2023/03/22 10:44:49;;;;;;;;;4.33;4.33;;;;;-147.17;100.00;-15917.19;5053546;28;51042;-48
2023/03/22 10:47:40;;;;;;;;;7.00;6.00;;;;;-147.17;100.00;-15917.19;5036634;28;51154;-49
2023/03/22 10:50:17;;;;;;;;;10.67;8.00;;;;;-147.17;100.00;-15917.19;5055072;28;50887;-52
2023/03/22 10:52:58;;;;;;;;;8.50;7.50;;;;;-147.17;100.00;-15917.19;5048762;28;51382;-49
2023/03/22 10:55:24;;;;;;;;;9.00;6.00;;;;;-147.17;100.00;-15917.19;5053814;28;51098;-47
2023/03/22 10:58:16;;;;;;;;;7.67;6.67;;;;;-147.17;100.00;-15917.19;5054661;28;51145;-48
2023/03/22 11:00:58;;;;;;;;;13.25;9.00;;;;;-147.17;100.00;-15917.19;5042261;28;51179;-51
2023/03/22 11:03:40;;;;;;;;;6.25;6.00;;;;;-147.17;100.00;-15917.19;5036864;28;52448;-53
2023/03/22 11:06:13;;;;;;;;;6.00;6.00;;;;;-147.17;100.00;-15917.19;5053824;28;51029;-51
2023/03/22 11:08:41;;;;;;;;;9.50;7.75;;;;;-147.17;100.00;-15917.19;5052777;28;50956;-49
2023/03/22 11:11:33;;;;;;;;;10.00;9.00;;;;;-147.17;100.00;-15917.19;5049576;28;50906;-49
2023/03/22 11:14:21;;;;;;;;;9.67;9.33;;;;;-147.17;100.00;-15917.19;5051134;28;52270;-49